Time;durP1;ratioP1;P1;durP2;ratioP2;P2;SDS_P1;SDS_P2;PMS_P1;PMS_P2;Temp;Humidity;BMP_temperature;BMP_pressure;BME280_temperature;BME280_humidity;BME280_pressure;Samples;Min_cycle;Max_cycle;Signal;HPM_P1;HPM_P2
2023/01/13 00:00:40;;;;;;;;;;;7.70;99.90;;;;;;5096396;28;19907;-64
2023/01/13 00:03:05;;;;;;;;;;;7.60;99.90;;;;;;5087552;28;19921;-65
2023/01/13 00:05:31;;;;;;;;;;;7.60;99.90;;;;;;5077405;28;19963;-63
2023/01/13 00:07:57;;;;;;;;;;;7.60;99.90;;;;;;5068302;28;20339;-64
2023/01/13 00:10:22;;;;;;;;;;;7.60;99.90;;;;;;5075019;28;19927;-66
2023/01/13 00:12:48;;;;;;;;;;;7.50;99.90;;;;;;5096704;28;21268;-64
2023/01/13 00:15:13;;;;;;;;;;;7.50;99.90;;;;;;5089411;28;19915;-65
2023/01/13 00:17:39;;;;;;;;;;;7.50;99.90;;;;;;5069697;28;19916;-64
2023/01/13 00:20:05;;;;;;;;;;;7.50;99.90;;;;;;5097406;28;20405;-64
2023/01/13 00:22:34;;;;;;;;;;;7.50;99.90;;;;;;5091959;28;20006;-63
2023/01/13 00:25:00;;;;;;;;;;;7.50;99.90;;;;;;5088554;28;19916;-65
2023/01/13 00:27:26;;;;;;;;;;;7.60;99.90;;;;;;5095887;28;19919;-64
2023/01/13 00:29:52;;;;;;;;;;;7.60;99.90;;;;;;5089788;28;19952;-64
2023/01/13 00:32:17;;;;;;;;;;;7.50;99.90;;;;;;5089501;28;19916;-65
2023/01/13 00:34:43;;;;;;;;;;;7.60;99.90;;;;;;5078930;28;19995;-64
2023/01/13 00:37:11;;;;;;;;;;;7.50;99.90;;;;;;5069357;28;19913;-62
2023/01/13 00:39:37;;;;;;;;;;;7.60;99.90;;;;;;5087593;28;19951;-63
2023/01/13 00:44:47;;;;;;;;;;;7.60;99.90;;;;;;5105171;28;20036;-63
2023/01/13 00:47:12;;;;;;;;;;;7.70;99.90;;;;;;5110475;28;19912;-62
2023/01/13 00:49:38;;;;;;;;;;;7.70;99.90;;;;;;5098804;28;20346;-64
2023/01/13 00:52:04;;;;;;;;;;;7.80;99.90;;;;;;5085956;28;19908;-65
2023/01/13 00:54:29;;;;;;;;;;;7.80;99.90;;;;;;5072755;28;19915;-64
2023/01/13 00:56:55;;;;;;;;;;;7.80;99.90;;;;;;5085258;28;20246;-66
2023/01/13 00:59:20;;;;;;;;;;;7.80;99.90;;;;;;5091948;28;20278;-63
2023/01/13 01:01:46;;;;;;;;;;;7.80;99.90;;;;;;5092307;28;20317;-63
2023/01/13 01:04:11;;;;;;;;;;;7.80;99.90;;;;;;5092746;28;20433;-63
2023/01/13 01:06:37;;;;;;;;;;;7.80;99.90;;;;;;5091626;28;19923;-66
2023/01/13 01:09:03;;;;;;;;;;;7.70;99.90;;;;;;5091289;28;19962;-64
2023/01/13 01:11:29;;;;;;;;;;;7.80;99.90;;;;;;5092628;28;19991;-64
2023/01/13 01:13:56;;;;;;;;;;;7.70;99.90;;;;;;5092565;28;19908;-63
2023/01/13 01:16:22;;;;;;;;;;;7.80;99.90;;;;;;5090638;28;19991;-64
2023/01/13 01:18:49;;;;;;;;;;;7.80;99.90;;;;;;5054042;28;20280;-64
2023/01/13 01:21:15;;;;;;;;;;;7.80;99.90;;;;;;5072385;28;20302;-63
2023/01/13 01:23:41;;;;;;;;;;;7.80;99.90;;;;;;5072325;28;19943;-65
2023/01/13 01:26:09;;;;;;;;;;;7.90;99.90;;;;;;5065999;28;19955;-63
2023/01/13 01:28:34;;;;;;;;;;;7.90;99.90;;;;;;5088222;28;20354;-63
2023/01/13 01:31:04;;;;;;;;;;;7.90;99.90;;;;;;5092183;28;19931;-64
2023/01/13 01:33:30;;;;;;;;;;;8.00;99.90;;;;;;5089709;28;19980;-63
2023/01/13 01:35:55;;;;;;;;;;;8.00;99.90;;;;;;5072647;28;20359;-63
2023/01/13 01:38:22;;;;;;;;;;;7.90;99.90;;;;;;5112266;28;19919;-64
2023/01/13 01:40:48;;;;;;;;;;;7.90;99.90;;;;;;5112638;28;20003;-64
2023/01/13 01:45:58;;;;;;;;;;;7.90;99.90;;;;;;5092033;28;19931;-64
2023/01/13 01:48:24;;;;;;;;;;;7.90;99.90;;;;;;5092158;28;19908;-64
2023/01/13 01:50:51;;;;;;;;;;;8.00;99.90;;;;;;5087797;28;19916;-64
2023/01/13 01:53:18;;;;;;;;;;;8.00;99.90;;;;;;5090795;28;19916;-63
2023/01/13 01:55:44;;;;;;;;;;;8.00;99.90;;;;;;5089920;28;19908;-65
2023/01/13 01:58:15;;;;;;;;;;;8.00;99.90;;;;;;5095254;28;19935;-64
2023/01/13 02:00:41;;;;;;;;;;;8.00;99.90;;;;;;5094278;28;19923;-63
2023/01/13 02:03:07;;;;;;;;;;;8.00;99.90;;;;;;5091832;28;19912;-62
2023/01/13 02:05:37;;;;;;;;;;;7.90;99.90;;;;;;5091560;28;19912;-63
2023/01/13 02:08:04;;;;;;;;;;;7.90;99.90;;;;;;5084536;28;20250;-64
2023/01/13 02:10:29;;;;;;;;;;;7.90;99.90;;;;;;5071641;28;19947;-64
2023/01/13 02:12:56;;;;;;;;;;;8.00;99.90;;;;;;5071294;28;20338;-64
2023/01/13 02:15:40;;;;;;;;;;;8.00;99.90;;;;;;5071156;28;20535;-63
2023/01/13 02:18:24;;;;;;;;;;;8.10;99.90;;;;;;5071283;28;20327;-63
2023/01/13 02:21:00;;;;;;;;;;;8.10;99.90;;;;;;5071425;28;19912;-64
2023/01/13 02:26:31;;;;;;;;;;;8.10;99.90;;;;;;5091207;28;20404;-64
2023/01/13 02:32:05;;;;;;;;;;;8.20;99.90;;;;;;5101835;28;20265;-63
2023/01/13 02:34:42;;;;;;;;;;;8.20;99.90;;;;;;5092359;28;19999;-63
2023/01/13 02:37:17;;;;;;;;;;;8.20;99.90;;;;;;5105147;28;20029;-63
2023/01/13 02:39:43;;;;;;;;;;;8.20;99.90;;;;;;5108299;28;19912;-63
2023/01/13 02:45:14;;;;;;;;;;;8.30;99.90;;;;;;5105471;28;19958;-62
2023/01/13 02:47:42;;;;;;;;;;;8.30;99.90;;;;;;5105403;28;19920;-64
2023/01/13 02:50:16;;;;;;;;;;;8.30;99.90;;;;;;5098798;28;19919;-62
2023/01/13 02:52:50;;;;;;;;;;;8.30;99.90;;;;;;5106697;28;19957;-64
2023/01/13 02:55:17;;;;;;;;;;;8.30;99.90;;;;;;5084088;28;20483;-61
2023/01/13 02:57:43;;;;;;;;;;;8.30;99.90;;;;;;5098768;28;19957;-63
2023/01/13 03:00:10;;;;;;;;;;;8.40;99.90;;;;;;5090701;28;19930;-63
2023/01/13 03:02:36;;;;;;;;;;;8.40;99.90;;;;;;5084764;28;19912;-63
2023/01/13 03:05:01;;;;;;;;;;;8.40;99.90;;;;;;5089878;28;19908;-63
2023/01/13 03:07:27;;;;;;;;;;;8.40;99.90;;;;;;5082318;28;19965;-64
2023/01/13 03:10:18;;;;;;;;;;;8.40;99.90;;;;;;5070326;28;19909;-64
2023/01/13 03:12:50;;;;;;;;;;;8.40;99.90;;;;;;5053935;28;20018;-64
2023/01/13 03:15:21;;;;;;;;;;;8.40;99.90;;;;;;5088344;28;20128;-62
2023/01/13 03:18:09;;;;;;;;;;;8.40;99.90;;;;;;5098404;28;19912;-62
2023/01/13 03:20:38;;;;;;;;;;;8.40;99.90;;;;;;5111082;28;19967;-62
2023/01/13 03:23:14;;;;;;;;;;;8.40;99.90;;;;;;5110891;28;19912;-61
2023/01/13 03:25:45;;;;;;;;;;;8.40;99.90;;;;;;5078137;28;19913;-61
2023/01/13 03:28:19;;;;;;;;;;;8.40;99.90;;;;;;5101749;28;19913;-65
2023/01/13 03:30:52;;;;;;;;;;;8.50;99.90;;;;;;5084416;28;19911;-64
2023/01/13 03:33:21;;;;;;;;;;;8.50;99.90;;;;;;5094234;28;20274;-65
2023/01/13 03:35:51;;;;;;;;;;;8.50;99.90;;;;;;5107379;28;19907;-64
2023/01/13 03:38:16;;;;;;;;;;;8.40;99.90;;;;;;5102233;28;19924;-63
2023/01/13 03:40:48;;;;;;;;;;;8.40;99.90;;;;;;5107494;28;19915;-64
2023/01/13 03:46:03;;;;;;;;;;;8.40;99.90;;;;;;5111161;28;19990;-63
2023/01/13 03:48:30;;;;;;;;;;;8.40;99.90;;;;;;5104019;28;20293;-62
2023/01/13 03:51:01;;;;;;;;;;;8.40;99.90;;;;;;5099591;28;19915;-63
2023/01/13 03:53:28;;;;;;;;;;;8.40;99.90;;;;;;5103765;28;19934;-64
2023/01/13 03:56:00;;;;;;;;;;;8.40;99.90;;;;;;5095670;28;19916;-63
2023/01/13 03:58:28;;;;;;;;;;;8.40;99.90;;;;;;5097205;28;19946;-64
2023/01/13 04:00:56;;;;;;;;;;;8.40;99.90;;;;;;5109271;28;19916;-62
2023/01/13 04:03:28;;;;;;;;;;;8.50;99.90;;;;;;5110339;28;19954;-62
2023/01/13 04:05:56;;;;;;;;;;;8.50;99.90;;;;;;5110231;28;19919;-60
2023/01/13 04:08:24;;;;;;;;;;;8.60;99.90;;;;;;5083165;28;19912;-62
2023/01/13 04:11:13;;;;;;;;;;;8.60;99.90;;;;;;5089869;28;19912;-61
2023/01/13 04:13:39;;;;;;;;;;;8.50;99.90;;;;;;5078963;28;19961;-65
2023/01/13 04:16:06;;;;;;;;;;;8.60;99.90;;;;;;5090080;28;19912;-61
2023/01/13 04:18:31;;;;;;;;;;;8.60;99.90;;;;;;5114618;28;20393;-63
2023/01/13 04:20:58;;;;;;;;;;;8.60;99.90;;;;;;5096620;28;19953;-63
2023/01/13 04:23:24;;;;;;;;;;;8.60;99.90;;;;;;5110517;28;20053;-61
2023/01/13 04:25:50;;;;;;;;;;;8.70;99.90;;;;;;5079834;28;20442;-60
2023/01/13 04:28:17;;;;;;;;;;;8.70;99.90;;;;;;5093802;28;20005;-61
2023/01/13 04:30:42;;;;;;;;;;;8.80;99.90;;;;;;5101147;28;19916;-60
2023/01/13 04:33:09;;;;;;;;;;;8.80;99.90;;;;;;5111896;28;20298;-61
2023/01/13 04:35:35;;;;;;;;;;;8.80;99.90;;;;;;5103915;28;19911;-60
2023/01/13 04:38:01;;;;;;;;;;;8.80;99.90;;;;;;5083660;28;19912;-63
2023/01/13 04:40:27;;;;;;;;;;;8.80;99.90;;;;;;5076511;28;19947;-61
2023/01/13 04:42:52;;;;;;;;;;;8.80;99.90;;;;;;5077689;28;20020;-61
2023/01/13 04:45:18;;;;;;;;;;;8.80;99.90;;;;;;5079175;28;19955;-61
2023/01/13 04:47:43;;;;;;;;;;;8.80;99.90;;;;;;5078926;28;20393;-63
2023/01/13 04:50:10;;;;;;;;;;;8.80;99.90;;;;;;5076243;28;19923;-62
2023/01/13 04:52:35;;;;;;;;;;;8.80;99.90;;;;;;5077661;28;20042;-62
2023/01/13 04:55:01;;;;;;;;;;;8.80;99.90;;;;;;5076882;28;20372;-63
2023/01/13 04:57:27;;;;;;;;;;;8.70;99.90;;;;;;5058661;28;19920;-63
2023/01/13 04:59:52;;;;;;;;;;;8.60;99.90;;;;;;5101768;28;19974;-62
2023/01/13 05:02:18;;;;;;;;;;;8.60;99.90;;;;;;5113558;28;19920;-63
2023/01/13 05:04:47;;;;;;;;;;;8.70;99.90;;;;;;5102702;28;20410;-63
2023/01/13 05:07:13;;;;;;;;;;;8.60;99.90;;;;;;5092761;28;19928;-63
2023/01/13 05:09:39;;;;;;;;;;;8.60;99.90;;;;;;5093266;28;19912;-64
2023/01/13 05:17:33;;;;;;;;;;;8.50;99.90;;;;;;5093689;28;19914;-64
2023/01/13 05:19:59;;;;;;;;;;;8.50;99.90;;;;;;5093459;28;19916;-62
2023/01/13 05:25:21;;;;;;;;;;;8.50;99.90;;;;;;5095447;28;19953;-66
2023/01/13 05:27:57;;;;;;;;;;;8.40;99.90;;;;;;5085475;28;19912;-62
2023/01/13 05:30:30;;;;;;;;;;;8.40;99.90;;;;;;5087852;28;19979;-64
2023/01/13 05:32:56;;;;;;;;;;;8.30;99.90;;;;;;5078150;28;20108;-65
2023/01/13 05:35:21;;;;;;;;;;;8.30;99.90;;;;;;5080692;28;20559;-65
2023/01/13 05:37:47;;;;;;;;;;;8.20;99.90;;;;;;5078219;28;19912;-65
2023/01/13 05:45:44;;;;;;;;;;;8.20;99.90;;;;;;5078895;28;19919;-65
2023/01/13 05:48:09;;;;;;;;;;;8.20;99.90;;;;;;5079682;28;19916;-64
2023/01/13 05:50:35;;;;;;;;;;;8.20;99.90;;;;;;5095332;28;19919;-62
2023/01/13 05:53:00;;;;;;;;;;;8.20;99.90;;;;;;5107555;28;19933;-63
2023/01/13 05:55:26;;;;;;;;;;;8.20;99.90;;;;;;5100948;28;19911;-65
2023/01/13 05:57:51;;;;;;;;;;;8.20;99.90;;;;;;5106404;28;19919;-64
2023/01/13 06:00:17;;;;;;;;;;;8.10;99.90;;;;;;5087675;28;19911;-66
2023/01/13 06:02:43;;;;;;;;;;;8.10;99.90;;;;;;5080144;28;19911;-63
2023/01/13 06:05:08;;;;;;;;;;;8.10;99.90;;;;;;5099666;28;20008;-64
2023/01/13 06:07:34;;;;;;;;;;;8.10;99.90;;;;;;5097563;28;19916;-65
2023/01/13 06:10:00;;;;;;;;;;;8.10;99.90;;;;;;5108528;28;19912;-63
2023/01/13 06:12:25;;;;;;;;;;;8.10;99.90;;;;;;5097880;28;20366;-63
2023/01/13 06:14:51;;;;;;;;;;;8.10;99.90;;;;;;5105668;28;19915;-62
2023/01/13 06:17:16;;;;;;;;;;;8.10;99.90;;;;;;5105303;28;19985;-63
2023/01/13 06:19:42;;;;;;;;;;;8.10;99.90;;;;;;5086435;28;19923;-64
2023/01/13 06:22:20;;;;;;;;;;;8.10;99.90;;;;;;5105419;28;19916;-64
2023/01/13 06:24:47;;;;;;;;;;;8.00;99.90;;;;;;5073636;28;19938;-63
2023/01/13 06:27:13;;;;;;;;;;;7.90;99.90;;;;;;5109562;28;19911;-64
2023/01/13 06:29:39;;;;;;;;;;;7.90;99.90;;;;;;5098702;28;20151;-64
2023/01/13 06:32:10;;;;;;;;;;;8.00;99.90;;;;;;5085678;28;20366;-65
2023/01/13 06:34:36;;;;;;;;;;;8.00;99.90;;;;;;5105629;28;19939;-63
2023/01/13 06:37:02;;;;;;;;;;;8.10;99.90;;;;;;5101650;28;19912;-64
2023/01/13 06:39:30;;;;;;;;;;;8.00;99.90;;;;;;5095370;28;19916;-64
2023/01/13 06:44:40;;;;;;;;;;;8.00;99.90;;;;;;5103454;28;19923;-63
2023/01/13 06:47:06;;;;;;;;;;;7.90;99.90;;;;;;5105250;28;20282;-63
2023/01/13 06:49:31;;;;;;;;;;;8.00;99.90;;;;;;5110147;28;20376;-65
2023/01/13 06:51:57;;;;;;;;;;;8.10;99.90;;;;;;5101198;28;20504;-66
2023/01/13 06:54:22;;;;;;;;;;;8.10;99.90;;;;;;5106470;28;20262;-63
2023/01/13 06:56:48;;;;;;;;;;;8.10;99.90;;;;;;5097203;28;19963;-62
2023/01/13 06:59:13;;;;;;;;;;;8.00;99.90;;;;;;5088716;28;20030;-64
2023/01/13 07:01:39;;;;;;;;;;;8.00;99.90;;;;;;5091023;28;19912;-65
2023/01/13 07:04:04;;;;;;;;;;;8.10;99.90;;;;;;5091494;28;19935;-64
2023/01/13 07:06:30;;;;;;;;;;;8.10;99.90;;;;;;5072848;28;19920;-64
2023/01/13 07:08:56;;;;;;;;;;;8.00;99.90;;;;;;5080187;28;20009;-64
2023/01/13 07:11:21;;;;;;;;;;;8.00;99.90;;;;;;5090843;28;20026;-65
2023/01/13 07:16:31;;;;;;;;;;;8.00;99.90;;;;;;5091241;28;19990;-65
2023/01/13 07:18:56;;;;;;;;;;;8.10;99.90;;;;;;5090626;28;19919;-64
2023/01/13 07:21:22;;;;;;;;;;;8.00;99.90;;;;;;5099869;28;19919;-64
2023/01/13 07:23:47;;;;;;;;;;;8.00;99.90;;;;;;5090323;28;19938;-64
2023/01/13 07:26:13;;;;;;;;;;;8.10;99.90;;;;;;5103269;28;19935;-65
2023/01/13 07:28:39;;;;;;;;;;;8.10;99.90;;;;;;5098448;28;19916;-64
2023/01/13 07:31:11;;;;;;;;;;;8.20;99.90;;;;;;5074033;28;19955;-63
2023/01/13 07:33:36;;;;;;;;;;;8.20;99.90;;;;;;5102767;28;20011;-66
2023/01/13 07:36:03;;;;;;;;;;;8.20;99.90;;;;;;5109208;28;20452;-65
2023/01/13 07:38:29;;;;;;;;;;;8.30;99.90;;;;;;5106707;28;19999;-63
2023/01/13 07:40:55;;;;;;;;;;;8.30;99.90;;;;;;5098031;28;19911;-65
2023/01/13 07:43:32;;;;;;;;;;;8.40;99.90;;;;;;5093984;28;19916;-66
2023/01/13 07:45:59;;;;;;;;;;;8.30;99.90;;;;;;5104467;28;20016;-66
2023/01/13 07:48:25;;;;;;;;;;;8.50;99.90;;;;;;5090495;28;20324;-64
2023/01/13 07:50:50;;;;;;;;;;;8.70;99.90;;;;;;5090687;28;19916;-64
2023/01/13 07:53:16;;;;;;;;;;;8.90;99.90;;;;;;5110666;28;19908;-66
2023/01/13 07:55:42;;;;;;;;;;;9.00;99.90;;;;;;5094367;28;19920;-65
2023/01/13 07:58:08;;;;;;;;;;;9.00;99.90;;;;;;5090429;28;19912;-65
2023/01/13 08:00:34;;;;;;;;;;;8.90;99.90;;;;;;5085920;28;19951;-63
2023/01/13 08:02:59;;;;;;;;;;;8.80;99.90;;;;;;5105706;28;19954;-64
2023/01/13 08:05:25;;;;;;;;;;;8.90;99.90;;;;;;5091698;28;19970;-65
2023/01/13 08:07:51;;;;;;;;;;;9.00;99.90;;;;;;5101505;28;19916;-65
2023/01/13 08:10:16;;;;;;;;;;;9.00;99.90;;;;;;5093700;28;19912;-64
2023/01/13 08:15:28;;;;;;;;;;;9.10;99.90;;;;;;5108173;28;19919;-64
2023/01/13 08:17:54;;;;;;;;;;;9.10;99.90;;;;;;5111234;28;19939;-64
2023/01/13 08:20:19;;;;;;;;;;;9.10;99.90;;;;;;5105724;28;20345;-63
2023/01/13 08:22:45;;;;;;;;;;;9.20;99.90;;;;;;5087746;28;19916;-64
2023/01/13 08:25:11;;;;;;;;;;;9.20;99.90;;;;;;5093847;28;19918;-63
2023/01/13 08:27:36;;;;;;;;;;;9.30;99.90;;;;;;5095141;28;20382;-64
2023/01/13 08:30:02;;;;;;;;;;;9.30;99.90;;;;;;5092134;28;20027;-64
2023/01/13 08:32:28;;;;;;;;;;;9.30;99.90;;;;;;5094996;28;20014;-65
2023/01/13 08:34:53;;;;;;;;;;;9.30;99.90;;;;;;5102861;28;20354;-64
2023/01/13 08:37:19;;;;;;;;;;;9.40;99.90;;;;;;5110547;28;20002;-65
2023/01/13 08:39:45;;;;;;;;;;;9.40;99.90;;;;;;5083788;28;20365;-64
2023/01/13 08:42:10;;;;;;;;;;;9.50;99.90;;;;;;5101538;28;20316;-65
2023/01/13 08:44:36;;;;;;;;;;;9.50;99.90;;;;;;5107905;28;19923;-64
2023/01/13 08:47:01;;;;;;;;;;;9.50;99.90;;;;;;5110346;28;20386;-64
2023/01/13 08:49:27;;;;;;;;;;;9.60;99.90;;;;;;5105248;28;20342;-65
2023/01/13 08:51:53;;;;;;;;;;;9.60;99.90;;;;;;5098992;28;19938;-64
2023/01/13 08:54:19;;;;;;;;;;;9.70;99.90;;;;;;5102707;28;20366;-67
2023/01/13 08:56:44;;;;;;;;;;;9.80;99.90;;;;;;5089062;28;19919;-66
2023/01/13 08:59:11;;;;;;;;;;;9.90;99.90;;;;;;5108475;28;19908;-63
2023/01/13 09:01:38;;;;;;;;;;;9.90;99.90;;;;;;5110511;28;19922;-67
2023/01/13 09:04:04;;;;;;;;;;;10.00;99.90;;;;;;5098504;28;20002;-64
2023/01/13 09:06:30;;;;;;;;;;;10.00;99.90;;;;;;5100861;28;19950;-64
2023/01/13 09:08:55;;;;;;;;;;;10.00;99.90;;;;;;5106957;28;20324;-67
2023/01/13 09:14:15;;;;;;;;;;;10.00;99.90;;;;;;5107061;28;19930;-67
2023/01/13 09:16:41;;;;;;;;;;;10.00;99.90;;;;;;5104341;28;19912;-64
2023/01/13 09:19:06;;;;;;;;;;;10.10;99.90;;;;;;5102995;28;19918;-64
2023/01/13 09:21:32;;;;;;;;;;;10.10;99.90;;;;;;5100517;28;19912;-64
2023/01/13 09:23:57;;;;;;;;;;;10.10;99.90;;;;;;5082591;28;19919;-62
2023/01/13 09:26:23;;;;;;;;;;;10.10;99.90;;;;;;5095397;28;20396;-65
2023/01/13 09:28:48;;;;;;;;;;;10.10;99.90;;;;;;5112797;28;20369;-64
2023/01/13 09:31:14;;;;;;;;;;;10.30;99.90;;;;;;5113655;28;20316;-65
2023/01/13 09:36:23;;;;;;;;;;;10.30;99.90;;;;;;5099445;28;19927;-64
2023/01/13 09:38:49;;;;;;;;;;;10.30;99.90;;;;;;5113152;28;19907;-66
2023/01/13 09:44:25;;;;;;;;;;;10.40;99.90;;;;;;5068266;28;19960;-63
2023/01/13 09:46:53;;;;;;;;;;;10.50;99.90;;;;;;5100979;28;19994;-65
2023/01/13 09:49:21;;;;;;;;;;;10.60;99.90;;;;;;5108862;28;19962;-65
2023/01/13 09:51:53;;;;;;;;;;;10.60;99.90;;;;;;5113646;28;20238;-64
2023/01/13 09:54:30;;;;;;;;;;;10.70;99.90;;;;;;5113517;28;19931;-66
2023/01/13 09:56:57;;;;;;;;;;;10.70;99.90;;;;;;5106185;28;20450;-65
2023/01/13 09:59:25;;;;;;;;;;;10.70;99.90;;;;;;5112850;28;19908;-66
2023/01/13 10:02:00;;;;;;;;;;;10.70;99.90;;;;;;5113023;28;20415;-61
2023/01/13 10:04:26;;;;;;;;;;;10.80;99.90;;;;;;5112960;28;20060;-64
2023/01/13 10:06:55;;;;;;;;;;;10.80;99.90;;;;;;5102407;28;20381;-64
2023/01/13 10:09:26;;;;;;;;;;;10.80;99.90;;;;;;5109504;28;19908;-66
2023/01/13 10:14:50;;;;;;;;;;;10.80;99.90;;;;;;5109981;28;19959;-63
2023/01/13 10:17:27;;;;;;;;;;;10.90;99.90;;;;;;5111678;28;20002;-64
2023/01/13 10:19:56;;;;;;;;;;;10.90;99.90;;;;;;5112189;28;19908;-66
2023/01/13 10:22:40;;;;;;;;;;;11.00;99.90;;;;;;5112434;28;19951;-65
2023/01/13 10:25:06;;;;;;;;;;;11.10;99.90;;;;;;5107896;28;19920;-65
2023/01/13 10:27:33;;;;;;;;;;;11.30;99.90;;;;;;5093679;28;19908;-65
2023/01/13 10:30:09;;;;;;;;;;;11.30;99.90;;;;;;5112507;28;19914;-65
2023/01/13 10:32:34;;;;;;;;;;;11.40;99.90;;;;;;5112393;28;19916;-63
2023/01/13 10:35:01;;;;;;;;;;;11.30;99.90;;;;;;5105316;28;20572;-64
2023/01/13 10:37:27;;;;;;;;;;;11.30;99.90;;;;;;5101005;28;19912;-64
2023/01/13 10:39:54;;;;;;;;;;;11.40;99.90;;;;;;5097832;28;19970;-64
2023/01/13 10:42:21;;;;;;;;;;;11.40;99.90;;;;;;5092519;28;19916;-67
2023/01/13 10:44:57;;;;;;;;;;;11.40;99.90;;;;;;5090615;28;19962;-67
2023/01/13 10:47:24;;;;;;;;;;;11.40;99.90;;;;;;5104713;28;20532;-62
2023/01/13 10:50:19;;;;;;;;;;;11.40;99.90;;;;;;5111381;28;19911;-65
2023/01/13 10:52:56;;;;;;;;;;;11.50;99.90;;;;;;5085031;28;19911;-67
2023/01/13 10:55:26;;;;;;;;;;;11.60;99.90;;;;;;5106324;28;19954;-65
2023/01/13 10:57:52;;;;;;;;;;;11.70;99.90;;;;;;5111286;28;19911;-66
2023/01/13 11:00:27;;;;;;;;;;;11.80;99.90;;;;;;5111430;28;20335;-64
2023/01/13 11:03:11;;;;;;;;;;;11.90;99.90;;;;;;5111408;28;19912;-63
2023/01/13 11:05:37;;;;;;;;;;;11.90;99.90;;;;;;5107193;28;19984;-65
2023/01/13 11:08:03;;;;;;;;;;;12.00;99.90;;;;;;5096751;28;19916;-64
2023/01/13 11:10:30;;;;;;;;;;;12.10;99.90;;;;;;5101518;28;19938;-64
2023/01/13 11:13:09;;;;;;;;;;;12.10;99.90;;;;;;5091517;28;19908;-65
2023/01/13 11:15:38;;;;;;;;;;;12.20;99.90;;;;;;5091117;28;19919;-64
2023/01/13 11:18:33;;;;;;;;;;;12.20;99.90;;;;;;5089913;28;19919;-64
2023/01/13 11:20:59;;;;;;;;;;;12.30;99.90;;;;;;5089195;28;20411;-65
2023/01/13 11:23:30;;;;;;;;;;;12.20;99.90;;;;;;5088057;28;19947;-66
2023/01/13 11:26:02;;;;;;;;;;;12.20;99.90;;;;;;5103221;28;19912;-66
2023/01/13 11:28:31;;;;;;;;;;;12.20;99.90;;;;;;5111124;28;20369;-66
2023/01/13 11:31:15;;;;;;;;;;;12.10;99.90;;;;;;5078506;28;19913;-66
2023/01/13 11:33:47;;;;;;;;;;;12.10;99.90;;;;;;5071154;28;20017;-65
2023/01/13 11:36:19;;;;;;;;;;;12.00;99.90;;;;;;5109851;28;20250;-67
2023/01/13 11:38:54;;;;;;;;;;;11.90;99.90;;;;;;5103460;28;19916;-65
2023/01/13 11:41:41;;;;;;;;;;;12.00;99.90;;;;;;5107769;28;19915;-64
2023/01/13 11:44:22;;;;;;;;;;;12.00;99.90;;;;;;5086742;28;20002;-65
2023/01/13 11:46:49;;;;;;;;;;;12.00;99.90;;;;;;5090302;28;20011;-62
2023/01/13 11:49:20;;;;;;;;;;;12.10;99.90;;;;;;5091063;28;21324;-66
2023/01/13 11:51:50;;;;;;;;;;;12.10;99.90;;;;;;5110589;28;19908;-66
2023/01/13 11:54:16;;;;;;;;;;;12.20;99.90;;;;;;5110945;28;19907;-63
2023/01/13 11:56:51;;;;;;;;;;;12.10;99.90;;;;;;5110793;28;19927;-66
2023/01/13 11:59:34;;;;;;;;;;;12.10;99.90;;;;;;5106669;28;19938;-66
2023/01/13 12:02:06;;;;;;;;;;;12.20;99.90;;;;;;5110085;28;20350;-64
2023/01/13 12:04:34;;;;;;;;;;;12.20;99.90;;;;;;5111558;28;19908;-66
2023/01/13 12:07:11;;;;;;;;;;;12.20;99.90;;;;;;5110861;28;20014;-62
2023/01/13 12:09:52;;;;;;;;;;;12.20;99.90;;;;;;5085927;28;20003;-64
2023/01/13 12:12:38;;;;;;;;;;;12.30;99.90;;;;;;5095519;28;20358;-65
2023/01/13 12:15:15;;;;;;;;;;;12.20;99.90;;;;;;5067778;28;19950;-64
2023/01/13 12:17:50;;;;;;;;;;;12.20;99.90;;;;;;5110646;28;19908;-66
2023/01/13 12:20:15;;;;;;;;;;;12.20;99.90;;;;;;5105970;28;19914;-65
2023/01/13 12:22:44;;;;;;;;;;;12.20;99.90;;;;;;5102287;28;20426;-64
2023/01/13 12:25:19;;;;;;;;;;;12.20;99.90;;;;;;5103593;28;19947;-64
2023/01/13 12:27:55;;;;;;;;;;;12.20;99.90;;;;;;5110359;28;19912;-65
2023/01/13 12:30:39;;;;;;;;;;;12.20;99.90;;;;;;5092143;28;20052;-65
2023/01/13 12:33:16;;;;;;;;;;;12.20;99.90;;;;;;5107723;28;19935;-64
2023/01/13 12:35:48;;;;;;;;;;;12.10;99.90;;;;;;5110110;28;20005;-63
2023/01/13 12:38:14;;;;;;;;;;;12.20;99.90;;;;;;5115729;28;19947;-65
2023/01/13 12:40:51;;;;;;;;;;;12.20;99.90;;;;;;5103094;28;19954;-65
2023/01/13 12:46:18;;;;;;;;;;;12.20;99.90;;;;;;5098684;28;19954;-64
2023/01/13 12:48:51;;;;;;;;;;;12.20;99.90;;;;;;5094258;28;20393;-64
2023/01/13 12:51:23;;;;;;;;;;;12.20;99.90;;;;;;5092350;28;20284;-65
2023/01/13 12:53:48;;;;;;;;;;;12.20;99.90;;;;;;5090659;28;19915;-64
2023/01/13 12:56:20;;;;;;;;;;;12.20;99.90;;;;;;5113767;28;19950;-67
2023/01/13 12:58:46;;;;;;;;;;;12.20;99.90;;;;;;5114447;28;19908;-64
2023/01/13 13:01:12;;;;;;;;;;;12.20;99.90;;;;;;5110777;28;20424;-65
2023/01/13 13:03:38;;;;;;;;;;;12.20;99.90;;;;;;5114704;28;19916;-64
2023/01/13 13:06:09;;;;;;;;;;;12.20;99.90;;;;;;5114728;28;19916;-66
2023/01/13 13:08:47;;;;;;;;;;;12.30;99.90;;;;;;5115001;28;19960;-65
2023/01/13 13:13:16;;;;;;;;;;;12.30;99.90;;;;;;5106723;28;19923;-66
2023/01/13 13:14:03;;;;;;;;;;;12.30;99.90;;;;;;5112825;28;20015;-68
2023/01/13 13:16:32;;;;;;;;;;;12.30;99.90;;;;;;5093148;28;20570;-63
2023/01/13 13:19:16;;;;;;;;;;;12.30;99.90;;;;;;5093671;28;20055;-66
2023/01/13 13:22:00;;;;;;;;;;;12.30;99.90;;;;;;5099056;28;20373;-66
2023/01/13 13:24:26;;;;;;;;;;;12.30;99.90;;;;;;5112626;28;19912;-67
2023/01/13 13:26:51;;;;;;;;;;;12.20;99.90;;;;;;5095576;28;19930;-65
2023/01/13 13:29:23;;;;;;;;;;;12.20;99.90;;;;;;5113886;28;19915;-62
2023/01/13 13:31:48;;;;;;;;;;;12.20;99.90;;;;;;5109879;28;19908;-66
2023/01/13 13:34:23;;;;;;;;;;;12.20;99.90;;;;;;5113688;28;19938;-65
2023/01/13 13:37:01;;;;;;;;;;;12.10;99.90;;;;;;5113794;28;20379;-63
2023/01/13 13:47:46;;;;;;;;;;;12.20;99.90;;;;;;5087872;28;19922;-65
2023/01/13 13:50:19;;;;;;;;;;;12.30;99.90;;;;;;5106093;28;20015;-64
2023/01/13 13:52:53;;;;;;;;;;;12.20;99.90;;;;;;5088891;28;20003;-64
2023/01/13 13:55:23;;;;;;;;;;;12.30;99.90;;;;;;5095954;28;20338;-66
2023/01/13 13:57:50;;;;;;;;;;;12.30;99.90;;;;;;5069946;28;20343;-67
2023/01/13 14:00:18;;;;;;;;;;;12.20;99.90;;;;;;5106500;28;19972;-67
2023/01/13 14:02:49;;;;;;;;;;;12.20;99.90;;;;;;5101833;28;19998;-65
2023/01/13 14:05:18;;;;;;;;;;;12.20;99.90;;;;;;5089234;28;20014;-65
2023/01/13 14:07:45;;;;;;;;;;;12.10;99.90;;;;;;5106439;28;19908;-66
2023/01/13 14:10:13;;;;;;;;;;;12.10;99.90;;;;;;5077847;28;20280;-65
2023/01/13 14:12:39;;;;;;;;;;;12.00;99.90;;;;;;5073394;28;19986;-66
2023/01/13 14:15:05;;;;;;;;;;;12.00;99.90;;;;;;5085472;28;20034;-64
2023/01/13 14:17:30;;;;;;;;;;;11.90;99.90;;;;;;5086952;28;19923;-67
2023/01/13 14:20:08;;;;;;;;;;;11.90;99.90;;;;;;5094062;28;19912;-64
2023/01/13 14:22:34;;;;;;;;;;;11.80;99.90;;;;;;5086700;28;20010;-66
2023/01/13 14:25:00;;;;;;;;;;;11.70;99.90;;;;;;5091797;28;19977;-66
2023/01/13 14:27:27;;;;;;;;;;;11.70;99.90;;;;;;5085970;28;19919;-67
2023/01/13 14:29:54;;;;;;;;;;;11.70;99.90;;;;;;5090990;28;20150;-65
2023/01/13 14:32:21;;;;;;;;;;;11.70;99.90;;;;;;5091434;28;20381;-63
2023/01/13 14:34:47;;;;;;;;;;;11.60;99.90;;;;;;5090374;28;19932;-64
2023/01/13 14:37:24;;;;;;;;;;;11.60;99.90;;;;;;5095322;28;19982;-66
2023/01/13 14:39:50;;;;;;;;;;;11.60;99.90;;;;;;5104227;28;19945;-65
2023/01/13 14:42:16;;;;;;;;;;;11.60;99.90;;;;;;5098296;28;19920;-64
2023/01/13 14:44:43;;;;;;;;;;;11.60;99.90;;;;;;5086672;28;20049;-64
2023/01/13 14:47:26;;;;;;;;;;;11.60;99.90;;;;;;5085029;28;20400;-64
2023/01/13 14:49:57;;;;;;;;;;;11.60;99.90;;;;;;5091489;28;19930;-64
2023/01/13 14:52:24;;;;;;;;;;;11.70;99.90;;;;;;5090686;28;19919;-63
2023/01/13 14:54:50;;;;;;;;;;;11.70;99.90;;;;;;5089985;28;19981;-64
2023/01/13 14:57:23;;;;;;;;;;;11.60;99.90;;;;;;5084646;28;19920;-64
2023/01/13 15:00:09;;;;;;;;;;;11.70;99.90;;;;;;5082880;28;19924;-65
2023/01/13 15:02:37;;;;;;;;;;;11.60;99.90;;;;;;5068088;28;19922;-63
2023/01/13 15:05:18;;;;;;;;;;;11.60;99.90;;;;;;5090174;28;20333;-64
2023/01/13 15:07:50;;;;;;;;;;;11.60;99.90;;;;;;5089475;28;20389;-65
2023/01/13 15:10:19;;;;;;;;;;;11.60;99.90;;;;;;5085630;28;19952;-65
2023/01/13 15:12:48;;;;;;;;;;;11.50;99.90;;;;;;5087165;28;20378;-65
2023/01/13 15:15:22;;;;;;;;;;;11.50;99.90;;;;;;5094970;28;20106;-65
2023/01/13 15:17:48;;;;;;;;;;;11.40;99.90;;;;;;5087265;28;19912;-64
2023/01/13 15:20:18;;;;;;;;;;;11.30;99.90;;;;;;5088466;28;20429;-61
2023/01/13 15:22:44;;;;;;;;;;;11.20;99.90;;;;;;5091739;28;19919;-65
2023/01/13 15:25:10;;;;;;;;;;;11.20;99.90;;;;;;5082034;28;19919;-64
2023/01/13 15:27:36;;;;;;;;;;;11.10;99.90;;;;;;5078364;28;20166;-65
2023/01/13 15:30:03;;;;;;;;;;;11.10;99.90;;;;;;5076695;28;19944;-66
2023/01/13 15:32:28;;;;;;;;;;;11.10;99.90;;;;;;5111633;28;19908;-65
2023/01/13 15:34:54;;;;;;;;;;;11.10;99.90;;;;;;5097952;28;19935;-63